createdAt,value
2019-03-29T00:02:15.155Z,84.6
2019-03-29T00:07:15.447Z,84
2019-03-29T00:12:15.247Z,84.1
2019-03-29T00:17:15.323Z,84.9
2019-03-29T00:22:15.286Z,86.2
2019-03-29T00:27:15.337Z,86.1
2019-03-29T00:32:15.356Z,85.2
2019-03-29T00:37:15.280Z,85.3
2019-03-29T00:42:15.333Z,86.3
2019-03-29T00:47:15.567Z,86.4
2019-03-29T00:52:16.239Z,86.8
2019-03-29T00:57:15.541Z,86.2
2019-03-29T01:02:15.553Z,86.9
2019-03-29T01:07:15.554Z,87.2
2019-03-29T01:12:15.542Z,87.1
2019-03-29T01:17:16.070Z,86.2
2019-03-29T01:22:16.055Z,86.6
2019-03-29T01:27:16.072Z,86.6
2019-03-29T01:32:16.392Z,86.9
2019-03-29T01:37:17.097Z,87.1
2019-03-29T01:42:16.096Z,86
2019-03-29T01:47:16.083Z,85.9
2019-03-29T01:52:16.084Z,85.5
2019-03-29T01:57:19.096Z,85.3
2019-03-29T02:02:16.095Z,86.2
2019-03-29T02:07:16.083Z,85.5
2019-03-29T02:12:16.089Z,86.1
2019-03-29T02:17:16.095Z,85.9
2019-03-29T02:22:16.153Z,85.5
2019-03-29T02:27:16.101Z,84.9
2019-03-29T02:32:16.089Z,85.3
2019-03-29T02:37:16.113Z,85.4
2019-03-29T02:42:16.097Z,85.9
2019-03-29T02:47:16.121Z,86.1
2019-03-29T02:52:16.115Z,86.5
2019-03-29T02:57:16.259Z,86.9
2019-03-29T03:02:16.126Z,86.7
2019-03-29T03:07:16.114Z,86.7
2019-03-29T03:12:16.141Z,86.5
2019-03-29T03:17:16.132Z,86
2019-03-29T03:22:16.335Z,86.3
2019-03-29T03:27:16.364Z,87
2019-03-29T03:32:16.141Z,88.2
2019-03-29T03:37:16.189Z,88
2019-03-29T03:42:16.152Z,87.3
2019-03-29T03:47:16.150Z,89
2019-03-29T03:52:16.188Z,88.5
2019-03-29T03:57:16.181Z,88.8
2019-03-29T04:02:16.113Z,88.1
2019-03-29T04:07:16.145Z,87.9
2019-03-29T04:12:16.187Z,89.9
2019-03-29T04:17:16.170Z,89
2019-03-29T04:22:16.472Z,89.3
2019-03-29T04:27:16.186Z,89
2019-03-29T04:32:16.168Z,89.8
2019-03-29T04:37:16.281Z,90
2019-03-29T04:42:16.167Z,89.2
2019-03-29T04:47:16.162Z,90.8
2019-03-29T04:52:16.184Z,89.3
2019-03-29T04:57:16.183Z,90.4
2019-03-29T05:02:16.182Z,90.5
2019-03-29T05:07:16.165Z,90.5
2019-03-29T05:12:16.184Z,89.7
2019-03-29T05:17:16.234Z,90
2019-03-29T05:22:16.137Z,89.5
2019-03-29T05:27:16.207Z,89.4
2019-03-29T05:32:16.197Z,90
2019-03-29T05:37:16.206Z,89.1
2019-03-29T05:42:16.218Z,90.1
2019-03-29T05:47:16.203Z,89.9
2019-03-29T05:52:16.205Z,90
2019-03-29T05:57:16.222Z,89.8
2019-03-29T06:02:16.198Z,89
2019-03-29T06:07:16.218Z,89.2
2019-03-29T06:12:16.209Z,88.9
2019-03-29T06:17:17.269Z,88.5
2019-03-29T06:22:17.399Z,87.7
2019-03-29T06:27:17.329Z,88.1
2019-03-29T06:32:17.286Z,87.5
2019-03-29T06:37:17.322Z,87.6
2019-03-29T06:42:17.353Z,89.1
2019-03-29T06:47:17.584Z,88.5
2019-03-29T06:52:17.491Z,87.4
2019-03-29T06:57:17.447Z,88.6
2019-03-29T07:02:17.451Z,86.9
2019-03-29T07:07:17.448Z,86.8
2019-03-29T07:12:17.469Z,86.1
2019-03-29T07:17:17.456Z,85.5
2019-03-29T07:22:17.498Z,84.1
2019-03-29T07:27:17.414Z,83.3
2019-03-29T07:32:17.593Z,83.8
2019-03-29T07:37:17.423Z,81.8
2019-03-29T07:42:17.470Z,80.7
2019-03-29T07:47:17.461Z,79.1
2019-03-29T07:52:17.462Z,78.4
2019-03-29T07:57:20.423Z,78.3
2019-03-29T08:02:20.427Z,77.8
2019-03-29T08:07:28.888Z,76.8
2019-03-29T08:12:21.998Z,75.4
2019-03-29T08:17:20.435Z,76.1
2019-03-29T08:22:20.435Z,73.4
2019-03-29T08:27:20.443Z,71.3
2019-03-29T08:32:20.447Z,71.1
2019-03-29T08:37:20.578Z,70.1
2019-03-29T08:42:20.420Z,69.1
2019-03-29T08:47:20.469Z,68.6
2019-03-29T08:52:20.454Z,68.7
2019-03-29T08:57:20.402Z,66.8
2019-03-29T09:02:20.466Z,68.1
2019-03-29T09:07:20.590Z,68.9
2019-03-29T09:12:20.478Z,65.4
2019-03-29T09:17:20.401Z,65.8
2019-03-29T09:22:20.588Z,64.5
2019-03-29T09:27:20.576Z,65.4
2019-03-29T09:32:20.472Z,64.2
2019-03-29T09:37:20.474Z,63.2
2019-03-29T09:42:30.250Z,62.7
2019-03-29T09:47:20.475Z,60.7
2019-03-29T09:52:20.482Z,58.7
2019-03-29T09:57:20.468Z,58.1
2019-03-29T10:02:20.470Z,57.2
2019-03-29T10:07:20.478Z,54.7
2019-03-29T10:12:20.519Z,57.2
2019-03-29T10:17:20.539Z,53.3
2019-03-29T10:22:20.479Z,55.6
2019-03-29T10:27:20.508Z,54.8
2019-03-29T10:32:20.499Z,53.8
2019-03-29T10:37:20.499Z,53.7
2019-03-29T10:42:20.512Z,53
2019-03-29T10:47:20.496Z,56.4
2019-03-29T10:52:20.499Z,54.6
2019-03-29T10:57:20.518Z,53.5
2019-03-29T11:02:20.516Z,52.5
2019-03-29T11:07:20.525Z,52.8
2019-03-29T11:12:20.554Z,51.4
2019-03-29T11:17:20.534Z,51.9
2019-03-29T11:22:20.523Z,51.7
2019-03-29T11:27:22.861Z,51.7
2019-03-29T11:32:20.542Z,52.7
2019-03-29T11:37:20.557Z,51.6
2019-03-29T11:42:20.541Z,50.5
2019-03-29T11:47:20.553Z,52.2
2019-03-29T11:52:20.550Z,51.6
2019-03-29T11:57:20.548Z,51.1
2019-03-29T12:02:31.916Z,51.4
2019-03-29T12:07:20.542Z,52
2019-03-29T12:12:20.566Z,51.6
2019-03-29T12:17:20.557Z,50.9
2019-03-29T12:22:20.621Z,50.7
2019-03-29T12:27:20.625Z,50.3
2019-03-29T12:32:20.587Z,49.7
2019-03-29T12:37:20.704Z,50
2019-03-29T12:42:20.576Z,50.1
2019-03-29T12:47:20.575Z,50.4
2019-03-29T12:52:20.583Z,49.2
2019-03-29T12:57:20.583Z,48.8
2019-03-29T13:02:20.573Z,50
2019-03-29T13:07:20.591Z,49.7
2019-03-29T13:12:20.619Z,48.6
2019-03-29T13:17:20.535Z,49.1
2019-03-29T13:22:20.804Z,48.9
2019-03-29T13:27:20.594Z,49.2
2019-03-29T13:32:20.586Z,49.7
2019-03-29T13:37:20.632Z,48.4
2019-03-29T13:42:20.612Z,48.5
2019-03-29T13:47:20.659Z,48.6
2019-03-29T13:52:20.597Z,47.3
2019-03-29T13:57:20.605Z,48.1
2019-03-29T14:02:20.661Z,48.1
2019-03-29T14:07:20.592Z,47.8
2019-03-29T14:12:20.616Z,47.5
2019-03-29T14:17:20.636Z,47.4
2019-03-29T14:22:20.633Z,48.6
2019-03-29T14:27:20.618Z,47.7
2019-03-29T14:32:20.651Z,47.1
2019-03-29T14:37:20.639Z,46.7
2019-03-29T14:42:20.628Z,47.8
2019-03-29T14:47:20.638Z,47.1
2019-03-29T14:52:20.633Z,47.6
2019-03-29T14:57:20.744Z,48
2019-03-29T15:02:22.546Z,47.7
2019-03-29T15:07:20.692Z,47
2019-03-29T15:12:20.651Z,48.1
2019-03-29T15:17:21.858Z,47.6
2019-03-29T15:22:20.639Z,48.8
2019-03-29T15:27:20.645Z,48.8
2019-03-29T15:32:20.782Z,49.1
2019-03-29T15:37:20.658Z,48.8
2019-03-29T15:42:20.986Z,48.2
2019-03-29T15:47:20.662Z,48.9
2019-03-29T15:52:20.655Z,49.6
2019-03-29T15:57:20.732Z,49.5
2019-03-29T16:02:20.713Z,49.6
2019-03-29T16:07:20.892Z,50.2
2019-03-29T16:12:20.701Z,49.6
2019-03-29T16:17:20.687Z,50.4
2019-03-29T16:22:20.730Z,50.3
2019-03-29T16:27:20.735Z,50.3
2019-03-29T16:32:20.691Z,51
2019-03-29T16:37:20.835Z,51.3
2019-03-29T16:42:20.696Z,51
2019-03-29T16:47:20.689Z,52
2019-03-29T16:52:20.692Z,52.4
2019-03-29T16:57:20.722Z,53
2019-03-29T17:02:20.714Z,52.5
2019-03-29T17:07:20.741Z,53
2019-03-29T17:12:20.700Z,53.1
2019-03-29T17:17:20.702Z,54.1
2019-03-29T17:22:20.824Z,55
2019-03-29T17:27:20.681Z,54.2
2019-03-29T17:32:21.970Z,54.8
2019-03-29T17:37:21.716Z,54.7
2019-03-29T17:42:22.178Z,55.1
2019-03-29T17:47:20.731Z,55.8
2019-03-29T17:52:20.733Z,56.7
2019-03-29T17:57:21.276Z,56.7
2019-03-29T18:02:20.737Z,56.9
2019-03-29T18:07:20.856Z,57.9
2019-03-29T18:12:20.697Z,57
2019-03-29T18:17:20.761Z,58.4
2019-03-29T18:22:20.748Z,57.8
2019-03-29T18:27:20.741Z,58.4
2019-03-29T18:32:20.749Z,59.2
2019-03-29T18:37:20.773Z,58.7
2019-03-29T18:42:20.797Z,59.8
2019-03-29T18:47:20.922Z,59.2
2019-03-29T18:52:20.795Z,59.8
2019-03-29T18:57:21.223Z,60
2019-03-29T19:02:20.806Z,60.4
2019-03-29T19:07:20.732Z,61
2019-03-29T19:12:21.251Z,59.9
2019-03-29T19:17:22.068Z,61.3
2019-03-29T19:22:22.142Z,60.7
2019-03-29T19:27:20.826Z,61
2019-03-29T19:32:20.995Z,61
2019-03-29T19:37:20.819Z,62.3
2019-03-29T19:42:21.492Z,62.2
2019-03-29T19:47:20.817Z,63.1
2019-03-29T19:52:20.821Z,64.3
2019-03-29T19:57:20.837Z,64.8
2019-03-29T20:02:20.892Z,64.1
2019-03-29T20:07:20.835Z,66.4
2019-03-29T20:12:20.856Z,66.3
2019-03-29T20:17:28.044Z,66.4
2019-03-29T20:22:20.852Z,66.5
2019-03-29T20:27:20.903Z,67.7
2019-03-29T20:32:20.832Z,67.8
2019-03-29T20:37:20.846Z,68.2
2019-03-29T20:42:20.866Z,68.3
2019-03-29T20:47:20.867Z,68.1
2019-03-29T20:52:23.689Z,69.5
2019-03-29T20:57:20.994Z,68.6
2019-03-29T21:02:20.843Z,69.1
2019-03-29T21:07:21.018Z,69
2019-03-29T21:12:20.840Z,69.6
2019-03-29T21:17:20.859Z,69.6
2019-03-29T21:22:20.871Z,70.3
2019-03-29T21:27:20.849Z,69.9
2019-03-29T21:32:20.848Z,71.4
2019-03-29T21:37:23.703Z,70.4
2019-03-29T21:42:20.871Z,71.5
2019-03-29T21:47:20.856Z,71.2
2019-03-29T21:52:20.880Z,71.2
2019-03-29T21:57:20.861Z,71.6
2019-03-29T22:02:21.892Z,72.5
2019-03-29T22:07:20.920Z,72.7
2019-03-29T22:12:20.816Z,72.3
2019-03-29T22:17:20.859Z,73.1
2019-03-29T22:22:20.866Z,72.2
2019-03-29T22:27:20.854Z,72.9
2019-03-29T22:32:20.874Z,73.8
2019-03-29T22:37:20.873Z,73.6
2019-03-29T22:42:20.859Z,73.3
2019-03-29T22:47:20.890Z,75.8
2019-03-29T22:52:20.890Z,75
2019-03-29T22:57:20.895Z,76.3
2019-03-29T23:02:20.890Z,76.2
2019-03-29T23:07:20.895Z,75.3
2019-03-29T23:12:20.882Z,75.7
2019-03-29T23:17:20.896Z,76.3
2019-03-29T23:22:20.899Z,75.9
2019-03-29T23:27:20.892Z,77.2
2019-03-29T23:32:20.902Z,77.8
2019-03-29T23:37:20.913Z,77
2019-03-29T23:42:20.954Z,76.7
2019-03-29T23:47:20.903Z,76.8
2019-03-29T23:52:20.912Z,78.1
2019-03-29T23:57:20.920Z,76.8
